Terminal Aerodrome Forecast
Issued by NWS El Paso, TX

Home | Current Version | Previous Version | Text Only | Print | Product List | Glossary On
Versions: 1 2 3 4 5 6 7 8 9 10 11 12
000
FTUS44 KEPZ 222300
TAFELP
TAF
KELP 222333Z 2300/2324 27013G21KT P6SM FEW250
     FM230200 28011KT P6SM SCT250
     FM230900 27018G27KT P6SM FEW250
     FM231600 29020G30KT P6SM SCT250
     FM232100 32016G26KT P6SM FEW250=

USA.gov is the U.S. government's official web portal to all federal, state and local government web resources and services.